createdAt,value
2022-11-06T00:29:24.446Z,0
2022-11-06T00:30:10.651Z,0
2022-11-06T00:30:59.392Z,0
2022-11-06T00:31:48.103Z,0
2022-11-06T00:32:36.942Z,0
2022-11-06T00:33:25.836Z,0
2022-11-06T00:34:14.891Z,0
2022-11-06T00:35:04.865Z,0
2022-11-06T00:41:57.781Z,0
2022-11-06T00:42:38.325Z,0
2022-11-06T00:43:18.697Z,0
2022-11-06T00:43:59.247Z,0
2022-11-06T00:44:39.733Z,0
2022-11-06T00:45:20.141Z,0
2022-11-06T00:46:00.688Z,0
2022-11-06T00:46:41.200Z,0
2022-11-06T00:47:21.716Z,0
2022-11-06T00:48:02.158Z,0
2022-11-06T00:48:42.662Z,0
2022-11-06T00:54:47.649Z,0
2022-11-06T00:55:28.178Z,0
2022-11-06T00:56:08.631Z,0
2022-11-06T00:56:49.091Z,0
2022-11-06T00:57:29.622Z,0
2022-11-06T00:58:10.329Z,0
2022-11-06T00:58:50.594Z,0
2022-11-06T00:59:31.069Z,0
2022-11-06T01:00:52.226Z,0
2022-11-06T01:01:32.815Z,0
2022-11-06T01:08:17.736Z,0
2022-11-06T01:08:58.210Z,0
2022-11-06T01:09:38.870Z,0
2022-11-06T01:10:19.344Z,0
2022-11-06T01:10:59.899Z,0
2022-11-06T01:12:10.834Z,0
2022-11-06T01:12:20.854Z,0
2022-11-06T01:13:01.355Z,0
2022-11-06T01:13:41.838Z,0
2022-11-06T01:14:22.368Z,0
2022-11-06T01:18:30.383Z,0
2022-11-06T01:19:10.856Z,0
2022-11-06T01:19:51.440Z,0
2022-11-06T01:20:31.974Z,0
2022-11-06T01:21:13.506Z,0
2022-11-06T01:26:40.712Z,0
2022-11-06T01:27:26.910Z,0
2022-11-06T01:27:58.960Z,0
2022-11-06T01:28:42.566Z,0
2022-11-06T01:32:47.479Z,0
2022-11-06T01:33:28.993Z,0
2022-11-06T01:34:09.082Z,0
2022-11-06T01:34:49.541Z,0
2022-11-06T01:35:30.011Z,0
2022-11-06T01:36:10.842Z,0
2022-11-06T01:36:51.357Z,0
2022-11-06T01:37:31.833Z,0
2022-11-06T01:38:12.664Z,0
2022-11-06T01:38:52.850Z,0
2022-11-06T01:45:37.812Z,0
2022-11-06T01:46:18.332Z,0
2022-11-06T01:46:58.779Z,0
2022-11-06T01:47:39.839Z,0
2022-11-06T01:48:20.665Z,0
2022-11-06T01:49:01.126Z,0
2022-11-06T01:49:41.632Z,0
2022-11-06T01:50:22.061Z,0
2022-11-06T01:51:02.564Z,0
2022-11-06T01:58:27.892Z,0
2022-11-06T01:59:08.393Z,0
2022-11-06T01:59:48.955Z,0
2022-11-06T02:00:29.346Z,0
2022-11-06T02:01:09.850Z,0
2022-11-06T02:01:50.483Z,0
2022-11-06T02:02:32.764Z,0
2022-11-06T02:08:37.801Z,0
2022-11-06T02:09:18.250Z,0
2022-11-06T02:09:58.729Z,0
2022-11-06T02:10:39.217Z,0
2022-11-06T02:11:19.677Z,0
2022-11-06T02:12:00.210Z,0
2022-11-06T02:12:40.614Z,0
2022-11-06T02:13:21.103Z,0
2022-11-06T02:14:01.532Z,0
2022-11-06T02:14:42.081Z,0
2022-11-06T02:15:22.560Z,0
2022-11-06T02:19:27.598Z,0
2022-11-06T02:20:08.070Z,0
2022-11-06T02:20:48.605Z,0
2022-11-06T02:22:09.550Z,0
2022-11-06T02:22:50.711Z,0
2022-11-06T02:23:31.131Z,0
2022-11-06T02:24:11.776Z,0
2022-11-06T02:24:52.146Z,0
2022-11-06T02:25:32.656Z,0
2022-11-06T02:32:17.547Z,0
2022-11-06T02:32:57.994Z,0
2022-11-06T02:33:38.490Z,0
2022-11-06T02:34:18.954Z,0
2022-11-06T02:34:59.537Z,0
2022-11-06T02:35:39.872Z,0
2022-11-06T02:36:20.421Z,0
2022-11-06T02:37:00.872Z,0
2022-11-06T02:37:41.323Z,0
2022-11-06T02:38:21.882Z,0
2022-11-06T02:39:02.300Z,0
2022-11-06T02:39:42.815Z,0
2022-11-06T02:45:07.693Z,0
2022-11-06T02:45:48.160Z,0
2022-11-06T02:46:28.683Z,0
2022-11-06T02:47:09.139Z,0
2022-11-06T02:47:49.666Z,0
2022-11-06T02:48:30.079Z,0
2022-11-06T02:49:10.683Z,0
2022-11-06T02:49:51.115Z,0
2022-11-06T02:50:31.721Z,0
2022-11-06T02:51:12.089Z,0
2022-11-06T02:51:52.664Z,0
2022-11-06T02:58:39.040Z,0
2022-11-06T02:59:17.995Z,0
2022-11-06T02:59:58.498Z,0
2022-11-06T03:00:39.519Z,0
2022-11-06T03:01:20.114Z,0
2022-11-06T03:02:00.751Z,0
2022-11-06T03:02:41.163Z,0
2022-11-06T03:03:21.650Z,0
2022-11-06T03:04:02.833Z,0
2022-11-06T03:09:27.749Z,0
2022-11-06T03:10:08.238Z,0
2022-11-06T03:10:48.738Z,0
2022-11-06T03:11:29.256Z,0
2022-11-06T03:12:09.735Z,0
2022-11-06T03:12:50.194Z,0
2022-11-06T03:13:30.715Z,0
2022-11-06T03:14:11.395Z,0
2022-11-06T03:14:51.885Z,0
2022-11-06T03:15:32.352Z,0
2022-11-06T03:21:37.855Z,0
2022-11-06T03:22:18.316Z,0
2022-11-06T03:22:59.682Z,0
2022-11-06T03:23:42.087Z,0
2022-11-06T03:24:26.982Z,0
2022-11-06T03:31:12.294Z,0
2022-11-06T03:31:58.363Z,0
2022-11-06T03:32:46.584Z,0
2022-11-06T03:33:35.458Z,0
2022-11-06T03:34:24.442Z,0
2022-11-06T03:35:12.638Z,0
2022-11-06T03:36:01.352Z,0
2022-11-06T03:40:45.008Z,0
2022-11-06T03:41:32.713Z,0
2022-11-06T03:42:20.327Z,0
2022-11-06T03:43:08.096Z,0
2022-11-06T03:43:54.358Z,0
2022-11-06T03:44:43.239Z,0
2022-11-06T03:45:31.692Z,0
2022-11-06T03:46:11.563Z,0
2022-11-06T03:46:51.956Z,0
2022-11-06T03:47:32.459Z,0
2022-11-06T03:48:13.294Z,0
2022-11-06T03:48:53.422Z,0
2022-11-06T03:49:33.861Z,0
2022-11-06T03:50:54.830Z,0
2022-11-06T03:51:35.392Z,0
2022-11-06T03:55:00.565Z,0
2022-11-06T03:55:41.034Z,0
2022-11-06T03:56:21.613Z,0
2022-11-06T03:59:01.186Z,0
2022-11-06T03:59:50.660Z,0
2022-11-06T04:03:41.367Z,0
2022-11-06T04:08:14.009Z,0
2022-11-06T04:09:16.121Z,0
2022-11-06T04:10:06.456Z,0
2022-11-06T04:10:54.736Z,0
2022-11-06T04:15:05.273Z,0
2022-11-06T04:18:34.303Z,0
2022-11-06T04:19:53.551Z,0
2022-11-06T04:30:35.983Z,0
2022-11-06T04:31:20.158Z,0
2022-11-06T04:32:01.267Z,0
2022-11-06T04:32:42.308Z,0
2022-11-06T04:33:22.736Z,0
2022-11-06T04:34:03.240Z,0
2022-11-06T04:34:43.777Z,0
2022-11-06T04:35:24.591Z,0
2022-11-06T04:36:05.932Z,0
2022-11-06T04:40:50.484Z,0
2022-11-06T04:41:32.641Z,0
2022-11-06T04:42:13.980Z,0
2022-11-06T04:42:54.495Z,0
2022-11-06T04:44:16.285Z,0
2022-11-06T04:49:00.519Z,0
2022-11-06T04:49:40.969Z,0
2022-11-06T04:50:21.531Z,0
2022-11-06T04:51:03.779Z,0
2022-11-06T04:51:44.248Z,0
2022-11-06T04:52:24.794Z,0
2022-11-06T04:53:05.208Z,0
2022-11-06T04:59:50.542Z,0
2022-11-06T05:00:31.078Z,0
2022-11-06T05:01:12.254Z,0
2022-11-06T05:01:52.832Z,0
2022-11-06T05:02:33.348Z,0
2022-11-06T05:03:13.909Z,0
2022-11-06T05:03:54.403Z,0
2022-11-06T05:04:35.778Z,0
2022-11-06T05:10:00.656Z,0
2022-11-06T05:10:41.108Z,0
2022-11-06T05:11:21.589Z,0
2022-11-06T05:12:02.405Z,0
2022-11-06T05:12:42.875Z,0
2022-11-06T05:13:23.388Z,0
2022-11-06T05:14:03.878Z,0
2022-11-06T05:14:44.345Z,0
2022-11-06T05:15:24.942Z,0
2022-11-06T05:16:06.246Z,0
2022-11-06T05:20:50.478Z,0
2022-11-06T05:21:30.966Z,0
2022-11-06T05:22:11.442Z,0
2022-11-06T05:22:52.009Z,0
2022-11-06T05:23:32.561Z,0
2022-11-06T05:24:53.713Z,0
2022-11-06T05:25:34.353Z,0
2022-11-06T05:26:14.811Z,0
2022-11-06T05:33:40.648Z,0
2022-11-06T05:34:20.998Z,0
2022-11-06T05:35:01.493Z,0
2022-11-06T05:35:42.001Z,0
2022-11-06T05:36:23.220Z,0
2022-11-06T05:37:03.676Z,0
2022-11-06T05:37:45.274Z,0
2022-11-06T05:43:50.675Z,0
2022-11-06T05:44:31.065Z,0
2022-11-06T05:45:11.596Z,0
2022-11-06T05:45:52.045Z,0
2022-11-06T05:46:49.465Z,0
2022-11-06T05:47:13.045Z,0
2022-11-06T05:47:53.609Z,0
2022-11-06T05:48:34.224Z,0
2022-11-06T05:49:55.426Z,0
2022-11-06T06:34:47.400Z,104
2022-11-06T06:46:13.735Z,288
2022-11-06T06:46:54.170Z,304
2022-11-06T06:47:34.668Z,316
2022-11-06T06:48:15.516Z,336
2022-11-06T06:54:24.830Z,484
2022-11-06T06:55:06.274Z,528
2022-11-06T06:55:46.744Z,544
2022-11-06T06:56:27.206Z,572
2022-11-06T06:57:08.035Z,600
2022-11-06T06:57:48.469Z,620
2022-11-06T07:03:53.539Z,808
2022-11-06T07:04:34.016Z,820
2022-11-06T07:05:14.516Z,828
2022-11-06T07:05:55.036Z,868
2022-11-06T07:06:35.517Z,876
2022-11-06T07:07:16.046Z,888
2022-11-06T07:07:56.461Z,920
2022-11-06T07:08:36.925Z,892
2022-11-06T07:16:43.691Z,1204
2022-11-06T07:17:24.096Z,1236
2022-11-06T07:18:04.956Z,1240
2022-11-06T07:18:45.272Z,1232
2022-11-06T07:19:25.822Z,1208
2022-11-06T07:20:06.353Z,1192
2022-11-06T07:20:46.760Z,1144
2022-11-06T07:21:27.352Z,1096
2022-11-06T07:22:08.616Z,1072
2022-11-06T07:28:53.439Z,852
2022-11-06T07:29:33.943Z,852
2022-11-06T07:30:14.413Z,856
2022-11-06T07:30:54.875Z,856
2022-11-06T07:31:35.350Z,856
2022-11-06T07:32:15.859Z,856
2022-11-06T07:32:56.327Z,860
2022-11-06T07:33:36.795Z,860
2022-11-06T07:34:58.437Z,872
2022-11-06T07:39:43.965Z,940
2022-11-06T07:40:24.409Z,960
2022-11-06T07:41:05.149Z,980
2022-11-06T07:42:26.551Z,1028
2022-11-06T07:43:07.089Z,1044
2022-11-06T07:43:47.599Z,1060
2022-11-06T07:44:28.098Z,1076
2022-11-06T07:45:08.496Z,1104
2022-11-06T07:51:53.634Z,1296
2022-11-06T07:52:34.100Z,1292
2022-11-06T07:53:14.914Z,1144
2022-11-06T07:53:55.075Z,1056
2022-11-06T07:54:35.521Z,1036
2022-11-06T07:55:15.996Z,1040
2022-11-06T07:55:58.434Z,1044
2022-11-06T08:01:23.616Z,1140
2022-11-06T08:02:04.149Z,1108
2022-11-06T08:02:44.650Z,1084
2022-11-06T08:03:24.948Z,1064
2022-11-06T08:04:05.647Z,1052
2022-11-06T08:04:46.155Z,1048
2022-11-06T08:05:26.578Z,1040
2022-11-06T08:06:07.145Z,1036
2022-11-06T08:08:30.777Z,1036
2022-11-06T08:09:11.492Z,1028
2022-11-06T08:09:51.942Z,1036
2022-11-06T08:10:32.435Z,1024
2022-11-06T08:16:37.052Z,1020
2022-11-06T08:17:17.587Z,1036
2022-11-06T08:17:58.754Z,1060
2022-11-06T08:18:38.695Z,1084
2022-11-06T08:19:19.264Z,1112
2022-11-06T08:19:59.791Z,1136
2022-11-06T08:20:40.324Z,1160
2022-11-06T08:21:20.878Z,1188
2022-11-06T08:22:01.334Z,1208
2022-11-06T08:22:41.866Z,1228
2022-11-06T08:23:22.424Z,1256
2022-11-06T08:29:27.122Z,1440
2022-11-06T08:30:07.925Z,1436
2022-11-06T08:30:48.945Z,1444
2022-11-06T08:31:29.536Z,1316
2022-11-06T08:32:10.103Z,1276
2022-11-06T08:32:50.547Z,1220
2022-11-06T08:33:31.108Z,1212
2022-11-06T08:34:11.513Z,1212
2022-11-06T08:34:52.018Z,1288
2022-11-06T08:41:37.397Z,1160
2022-11-06T08:42:17.968Z,1124
2022-11-06T08:42:58.446Z,1156
2022-11-06T08:43:39.156Z,1152
2022-11-06T08:44:19.577Z,1140
2022-11-06T08:45:00.256Z,1128
2022-11-06T08:45:40.827Z,1116
2022-11-06T08:46:21.367Z,1112
2022-11-06T08:47:01.848Z,1104
2022-11-06T08:55:32.885Z,1060
2022-11-06T08:56:13.524Z,1048
2022-11-06T08:56:54.000Z,1052
2022-11-06T08:57:34.816Z,1032
2022-11-06T09:01:37.809Z,996
2022-11-06T09:02:18.207Z,912
2022-11-06T09:02:58.791Z,864
2022-11-06T09:03:39.383Z,1044
2022-11-06T09:04:19.789Z,900
2022-11-06T09:05:00.332Z,1080
2022-11-06T09:05:40.985Z,1084
2022-11-06T09:06:21.395Z,1012
2022-11-06T09:07:02.037Z,844
2022-11-06T09:07:42.439Z,860
2022-11-06T09:13:07.972Z,1020
2022-11-06T09:13:48.347Z,1044
2022-11-06T09:14:28.793Z,896
2022-11-06T09:15:09.382Z,1036
2022-11-06T09:15:49.999Z,1152
2022-11-06T09:16:30.565Z,1132
2022-11-06T09:17:10.997Z,908
2022-11-06T09:17:51.660Z,848
2022-11-06T09:18:32.135Z,828
2022-11-06T09:25:17.441Z,704
2022-11-06T09:25:57.926Z,712
2022-11-06T09:26:38.459Z,724
2022-11-06T09:27:18.939Z,744
2022-11-06T09:27:59.946Z,760
2022-11-06T09:28:39.991Z,788
2022-11-06T09:29:21.375Z,832
2022-11-06T09:30:01.908Z,872
2022-11-06T09:30:42.338Z,904
2022-11-06T09:36:47.633Z,1428
2022-11-06T09:37:27.959Z,1200
2022-11-06T09:38:08.466Z,1192
2022-11-06T09:38:49.067Z,1196
2022-11-06T09:39:29.898Z,1204
2022-11-06T09:40:10.719Z,1220
2022-11-06T09:40:51.178Z,1244
2022-11-06T09:41:32.195Z,1304
2022-11-06T09:42:12.297Z,1320
2022-11-06T09:48:57.565Z,1068
2022-11-06T09:49:38.339Z,1020
2022-11-06T09:50:18.644Z,1048
2022-11-06T09:50:59.120Z,1228
2022-11-06T09:51:39.693Z,1256
2022-11-06T09:52:20.173Z,1212
2022-11-06T09:53:05.680Z,1348
2022-11-06T09:53:41.247Z,1368
2022-11-06T09:54:21.867Z,1208
2022-11-06T09:55:02.348Z,1264
2022-11-06T10:01:47.721Z,1092
2022-11-06T10:02:28.310Z,1088
2022-11-06T10:03:08.655Z,1084
2022-11-06T10:03:49.235Z,1100
2022-11-06T10:04:29.896Z,932
2022-11-06T10:05:10.416Z,836
2022-11-06T10:05:50.919Z,828
2022-11-06T10:06:31.407Z,816
2022-11-06T10:07:11.945Z,840
2022-11-06T10:07:52.758Z,848
2022-11-06T10:13:18.095Z,784
2022-11-06T10:13:57.971Z,800
2022-11-06T10:14:38.440Z,808
2022-11-06T10:15:18.970Z,824
2022-11-06T10:15:59.570Z,832
2022-11-06T10:16:40.029Z,840
2022-11-06T10:17:20.583Z,852
2022-11-06T10:18:01.134Z,852
2022-11-06T10:18:41.716Z,848
2022-11-06T10:19:22.277Z,836
2022-11-06T10:25:27.423Z,996
2022-11-06T10:26:08.210Z,940
2022-11-06T10:26:48.589Z,964
2022-11-06T10:27:29.310Z,984
2022-11-06T10:28:09.912Z,996
2022-11-06T10:28:50.693Z,1012
2022-11-06T10:29:31.202Z,1040
2022-11-06T10:30:11.914Z,1060
2022-11-06T10:30:52.403Z,1084
2022-11-06T10:36:17.452Z,1056
2022-11-06T10:36:57.668Z,1052
2022-11-06T10:37:38.138Z,1048
2022-11-06T10:38:18.686Z,1048
2022-11-06T10:38:59.229Z,1040
2022-11-06T10:39:39.705Z,1044
2022-11-06T10:40:20.241Z,1040
2022-11-06T10:41:00.779Z,1032
2022-11-06T10:41:41.305Z,1028
2022-11-06T10:42:21.879Z,1016
2022-11-06T10:43:02.346Z,1008
2022-11-06T10:49:47.693Z,860
2022-11-06T10:50:28.394Z,860
2022-11-06T10:51:08.777Z,864
2022-11-06T10:51:49.447Z,876
2022-11-06T10:52:29.863Z,880
2022-11-06T10:53:10.337Z,880
2022-11-06T10:53:50.887Z,892
2022-11-06T10:54:31.367Z,900
2022-11-06T10:55:11.838Z,916
2022-11-06T10:55:52.406Z,928
2022-11-06T11:02:37.775Z,888
2022-11-06T11:03:18.127Z,900
2022-11-06T11:03:58.665Z,900
2022-11-06T11:04:40.085Z,892
2022-11-06T11:05:20.746Z,884
2022-11-06T11:06:01.453Z,880
2022-11-06T11:06:42.130Z,888
2022-11-06T11:07:22.554Z,892
2022-11-06T11:13:27.723Z,904
2022-11-06T11:14:08.331Z,904
2022-11-06T11:14:48.871Z,912
2022-11-06T11:15:29.485Z,916
2022-11-06T11:16:09.999Z,912
2022-11-06T11:16:50.538Z,916
2022-11-06T11:17:30.916Z,924
2022-11-06T11:18:11.780Z,936
2022-11-06T11:18:51.951Z,944
2022-11-06T11:19:32.591Z,936
2022-11-06T11:25:37.427Z,1296
2022-11-06T11:26:17.988Z,1304
2022-11-06T11:26:58.689Z,1328
2022-11-06T11:27:39.159Z,1248
2022-11-06T11:28:19.785Z,1228
2022-11-06T11:29:00.414Z,1172
2022-11-06T11:29:40.853Z,1132
2022-11-06T11:30:21.442Z,1104
2022-11-06T11:31:01.929Z,1108
2022-11-06T11:31:42.691Z,1116
2022-11-06T11:37:47.686Z,1052
2022-11-06T11:38:28.227Z,1104
2022-11-06T11:39:08.706Z,1092
2022-11-06T11:39:49.305Z,1188
2022-11-06T11:40:30.083Z,1228
2022-11-06T11:41:10.405Z,1348
2022-11-06T11:41:51.034Z,1272
2022-11-06T11:42:31.602Z,1216
2022-11-06T11:43:12.096Z,1208
2022-11-06T11:43:52.684Z,1156
2022-11-06T11:49:57.518Z,1096
2022-11-06T11:50:38.406Z,1080
2022-11-06T11:51:18.860Z,1072
2022-11-06T11:51:59.472Z,1168
2022-11-06T11:52:42.600Z,1140
2022-11-06T11:53:20.613Z,1192
2022-11-06T11:54:00.979Z,1052
2022-11-06T12:32:11.804Z,1092
2022-11-06T12:32:52.353Z,1072
2022-11-06T12:34:04.255Z,1048
2022-11-06T12:34:17.353Z,1028
2022-11-06T12:34:53.992Z,1012
2022-11-06T12:35:34.901Z,1016
2022-11-06T12:36:15.283Z,1024
2022-11-06T12:36:55.781Z,1016
2022-11-06T12:37:36.360Z,984
2022-11-06T12:43:01.296Z,1052
2022-11-06T12:43:41.756Z,1012
2022-11-06T12:44:22.234Z,976
2022-11-06T12:45:02.887Z,956
2022-11-06T12:45:43.548Z,960
2022-11-06T12:46:24.271Z,952
2022-11-06T12:47:04.860Z,920
2022-11-06T12:47:45.456Z,868
2022-11-06T12:48:25.930Z,836
2022-11-06T12:49:06.743Z,820
2022-11-06T12:53:51.474Z,752
2022-11-06T12:54:32.114Z,740
2022-11-06T12:55:13.039Z,720
2022-11-06T12:55:53.673Z,700
2022-11-06T12:56:34.535Z,696
2022-11-06T12:57:15.074Z,692
2022-11-06T12:57:55.464Z,692
2022-11-06T12:58:36.443Z,684
2022-11-06T13:03:21.754Z,852
2022-11-06T13:04:02.385Z,896
2022-11-06T13:05:23.532Z,924
2022-11-06T13:06:05.177Z,928
2022-11-06T13:06:44.620Z,944
2022-11-06T13:07:25.160Z,964
2022-11-06T13:08:05.645Z,936
2022-11-06T13:08:46.135Z,932
2022-11-06T13:14:51.634Z,908
2022-11-06T13:15:32.283Z,900
2022-11-06T13:16:13.026Z,892
2022-11-06T13:16:53.800Z,868
2022-11-06T13:17:34.265Z,860
2022-11-06T13:18:15.194Z,856
2022-11-06T13:18:55.458Z,828
2022-11-06T13:19:35.899Z,800
2022-11-06T13:20:16.417Z,756
2022-11-06T13:24:21.351Z,580
2022-11-06T13:25:02.288Z,596
2022-11-06T13:25:42.476Z,624
2022-11-06T13:26:23.323Z,640
2022-11-06T13:27:03.860Z,648
2022-11-06T13:27:44.452Z,652
2022-11-06T13:28:24.969Z,652
2022-11-06T13:29:06.054Z,664
2022-11-06T13:35:51.309Z,932
2022-11-06T13:36:31.960Z,896
2022-11-06T13:37:12.349Z,884
2022-11-06T13:37:52.992Z,868
2022-11-06T13:38:33.502Z,836
2022-11-06T13:39:14.019Z,800
2022-11-06T13:39:54.505Z,764
2022-11-06T13:40:34.990Z,728
2022-11-06T13:41:56.140Z,640
2022-11-06T13:48:41.249Z,452
2022-11-06T13:49:21.696Z,444
2022-11-06T13:50:02.193Z,432
2022-11-06T13:50:42.710Z,420
2022-11-06T13:51:23.278Z,416
2022-11-06T13:52:03.690Z,412
2022-11-06T13:52:44.186Z,400
2022-11-06T13:53:24.796Z,392
2022-11-06T13:54:45.915Z,364
2022-11-06T13:55:26.502Z,352
2022-11-06T14:01:31.385Z,240
2022-11-06T14:02:11.780Z,232
2022-11-06T14:02:52.195Z,228
2022-11-06T14:03:32.726Z,224
2022-11-06T14:04:13.300Z,224
2022-11-06T14:04:53.940Z,220
2022-11-06T14:05:34.432Z,216
2022-11-06T14:06:14.883Z,208
2022-11-06T14:10:12.781Z,168
2022-11-06T14:10:53.260Z,176
2022-11-06T14:11:33.670Z,176
2022-11-06T14:12:15.438Z,172
2022-11-06T14:12:54.750Z,168
2022-11-06T14:13:35.180Z,164
2022-11-06T14:14:15.627Z,156
2022-11-06T14:14:56.156Z,156
2022-11-06T14:15:36.600Z,156
2022-11-06T14:16:17.925Z,160
2022-11-06T14:22:22.338Z,136
2022-11-06T14:23:02.788Z,128
2022-11-06T14:23:43.311Z,120
2022-11-06T14:24:23.773Z,116
2022-11-06T14:25:04.222Z,112
2022-11-06T14:25:44.724Z,108
2022-11-06T14:26:25.205Z,108
2022-11-06T14:27:05.679Z,100
2022-11-06T14:27:46.160Z,104
2022-11-06T14:28:26.661Z,104
2022-11-06T14:29:07.105Z,104
2022-11-06T14:29:47.586Z,104
2022-11-06T14:36:32.659Z,84
2022-11-06T14:37:13.119Z,84
2022-11-06T14:37:53.601Z,80
2022-11-06T14:38:34.121Z,80
2022-11-06T14:39:14.597Z,76
2022-11-06T14:39:55.069Z,76
2022-11-06T14:40:35.520Z,72
2022-11-06T14:41:16.053Z,76
2022-11-06T14:42:36.990Z,72
2022-11-06T14:43:17.508Z,76
2022-11-06T14:50:42.621Z,64
2022-11-06T14:51:23.118Z,60
2022-11-06T14:52:03.640Z,60
2022-11-06T14:52:44.120Z,60
2022-11-06T14:53:24.607Z,60
2022-11-06T14:54:05.043Z,56
2022-11-06T14:55:25.985Z,52
2022-11-06T14:56:06.472Z,52
2022-11-06T14:56:46.997Z,52
2022-11-06T15:04:12.507Z,36
2022-11-06T15:04:52.988Z,36
2022-11-06T15:05:35.466Z,32
2022-11-06T15:06:13.945Z,32
2022-11-06T15:06:54.478Z,32
2022-11-06T15:08:03.054Z,32
2022-11-06T15:08:15.769Z,28
2022-11-06T15:08:55.935Z,28
2022-11-06T15:09:36.413Z,28
2022-11-06T15:10:16.932Z,28
2022-11-06T15:17:42.342Z,16
2022-11-06T15:18:22.961Z,20
2022-11-06T15:19:03.280Z,16
2022-11-06T15:19:43.789Z,20
2022-11-06T15:20:24.269Z,16
2022-11-06T15:21:04.763Z,16
2022-11-06T15:21:45.222Z,12
2022-11-06T15:22:25.695Z,12
2022-11-06T15:23:06.324Z,16
2022-11-06T15:23:46.869Z,16
2022-11-06T15:24:27.354Z,16
2022-11-06T15:31:52.745Z,12
2022-11-06T15:32:33.251Z,12
2022-11-06T15:33:14.136Z,12
2022-11-06T15:33:55.823Z,12
2022-11-06T15:34:34.743Z,8
2022-11-06T15:35:15.251Z,12
2022-11-06T15:35:56.566Z,8
2022-11-06T15:36:37.088Z,8
2022-11-06T15:43:22.412Z,8
2022-11-06T15:44:02.929Z,8
2022-11-06T15:44:43.402Z,4
2022-11-06T15:45:23.839Z,4
2022-11-06T15:46:07.198Z,4
2022-11-06T15:46:44.821Z,4
2022-11-06T15:47:25.283Z,4
2022-11-06T15:48:05.780Z,4
2022-11-06T15:48:46.309Z,4
2022-11-06T15:50:07.409Z,4
2022-11-06T15:57:32.542Z,4
2022-11-06T15:58:13.407Z,4
2022-11-06T15:58:53.622Z,4
2022-11-06T16:06:06.129Z,0
2022-11-06T16:06:46.637Z,0
2022-11-06T16:07:27.058Z,0
2022-11-06T16:08:07.575Z,0
2022-11-06T16:08:48.069Z,0
2022-11-06T16:09:28.539Z,0
2022-11-06T16:10:08.993Z,0
2022-11-06T16:10:49.456Z,0
2022-11-06T16:11:29.959Z,0
2022-11-06T16:12:10.401Z,0
2022-11-06T16:12:50.889Z,0
2022-11-06T16:19:35.762Z,0
2022-11-06T16:20:16.333Z,0
2022-11-06T16:20:56.838Z,0
2022-11-06T16:21:37.346Z,0
2022-11-06T16:22:17.832Z,0
2022-11-06T16:22:58.318Z,0
2022-11-06T16:23:39.467Z,0
2022-11-06T16:24:19.288Z,0
2022-11-06T16:24:59.802Z,0
2022-11-06T16:25:40.253Z,0
2022-11-06T16:26:20.758Z,0
2022-11-06T16:33:05.728Z,0
2022-11-06T16:33:46.204Z,0
2022-11-06T16:34:26.726Z,0
2022-11-06T16:35:07.202Z,0
2022-11-06T16:35:51.254Z,0
2022-11-06T16:36:28.189Z,0
2022-11-06T16:37:08.646Z,0
2022-11-06T16:37:49.139Z,0
2022-11-06T16:38:45.029Z,0
2022-11-06T16:39:10.138Z,0
2022-11-06T16:39:51.023Z,0
2022-11-06T16:47:15.867Z,0
2022-11-06T16:47:56.408Z,0
2022-11-06T16:48:36.904Z,0
2022-11-06T16:49:17.374Z,0
2022-11-06T16:49:57.868Z,0
2022-11-06T16:50:38.376Z,0
2022-11-06T16:51:18.863Z,0
2022-11-06T16:51:59.326Z,0
2022-11-06T16:52:39.853Z,0
2022-11-06T16:53:20.300Z,0
2022-11-06T17:03:03.879Z,0
2022-11-06T17:03:44.304Z,0
2022-11-06T17:04:24.798Z,0
2022-11-06T17:05:05.213Z,0
2022-11-06T17:05:45.697Z,0
2022-11-06T17:06:26.198Z,0
2022-11-06T17:07:06.692Z,0
2022-11-06T17:07:47.171Z,0
2022-11-06T17:08:27.664Z,0
2022-11-06T17:09:48.670Z,0
2022-11-06T17:15:54.038Z,0
2022-11-06T17:16:34.583Z,0
2022-11-06T17:17:15.071Z,0
2022-11-06T17:17:55.550Z,0
2022-11-06T17:18:36.054Z,0
2022-11-06T17:19:16.572Z,0
2022-11-06T17:19:57.040Z,0
2022-11-06T17:20:37.486Z,0
2022-11-06T17:21:17.975Z,0
2022-11-06T17:21:58.600Z,0
2022-11-06T17:28:03.772Z,0
2022-11-06T17:28:44.233Z,0
2022-11-06T17:29:24.760Z,0
2022-11-06T17:30:05.166Z,0
2022-11-06T17:30:45.677Z,0
2022-11-06T17:31:26.190Z,0
2022-11-06T17:32:06.642Z,0
2022-11-06T17:32:47.156Z,0
2022-11-06T17:33:27.611Z,0
2022-11-06T17:34:08.083Z,0
2022-11-06T17:34:48.562Z,0
2022-11-06T17:41:33.582Z,0
2022-11-06T17:42:14.055Z,0
2022-11-06T17:42:54.519Z,0
2022-11-06T17:43:35.027Z,0
2022-11-06T17:44:15.502Z,0
2022-11-06T17:44:55.996Z,0
2022-11-06T17:45:36.482Z,0
2022-11-06T17:46:16.919Z,0
2022-11-06T17:46:57.452Z,0
2022-11-06T17:47:37.936Z,0
2022-11-06T17:48:18.412Z,0
2022-11-06T18:34:12.061Z,0
2022-11-06T18:34:50.511Z,0
2022-11-06T18:35:30.990Z,0
2022-11-06T18:36:11.576Z,0
2022-11-06T18:36:52.017Z,0
2022-11-06T18:37:32.462Z,0
2022-11-06T18:38:13.288Z,0
2022-11-06T18:38:53.424Z,0
2022-11-06T18:39:33.889Z,0
2022-11-06T18:40:14.355Z,0
2022-11-06T18:40:54.881Z,0
2022-11-06T18:48:21.765Z,0
2022-11-06T18:49:00.597Z,0
2022-11-06T18:49:41.054Z,0
2022-11-06T18:50:21.498Z,0
2022-11-06T18:51:02.033Z,0
2022-11-06T18:51:42.460Z,0
2022-11-06T18:52:38.322Z,0
2022-11-06T18:53:03.516Z,0
2022-11-06T18:53:43.984Z,0
2022-11-06T18:54:24.412Z,0
2022-11-06T18:55:04.916Z,0
2022-11-06T19:01:50.080Z,0
2022-11-06T19:02:30.609Z,0
2022-11-06T19:03:10.996Z,0
2022-11-06T19:03:51.497Z,0
2022-11-06T19:04:32.007Z,0
2022-11-06T19:05:12.476Z,0
2022-11-06T19:06:33.410Z,0
2022-11-06T19:07:13.869Z,0
2022-11-06T19:07:59.178Z,0
2022-11-06T19:08:34.855Z,0
2022-11-06T19:16:00.181Z,0
2022-11-06T19:16:40.623Z,0
2022-11-06T19:17:21.117Z,0
2022-11-06T19:18:01.653Z,0
2022-11-06T19:18:42.140Z,0
2022-11-06T19:19:24.842Z,0
2022-11-06T19:20:03.086Z,0
2022-11-06T19:20:43.567Z,0
2022-11-06T19:21:24.004Z,0
2022-11-06T19:24:37.740Z,0
2022-11-06T19:25:18.166Z,0
2022-11-06T19:26:10.553Z,0
2022-11-06T19:26:39.167Z,0
2022-11-06T19:27:19.623Z,0
2022-11-06T19:28:00.122Z,0
2022-11-06T19:28:40.605Z,0
2022-11-06T19:29:21.024Z,0
2022-11-06T19:30:01.518Z,0
2022-11-06T19:30:41.977Z,0
2022-11-06T19:38:47.760Z,0
2022-11-06T19:39:28.242Z,0
2022-11-06T19:40:08.713Z,0
2022-11-06T19:40:49.191Z,0
2022-11-06T19:41:29.694Z,0
2022-11-06T19:42:10.133Z,0
2022-11-06T19:42:50.625Z,0
2022-11-06T19:43:31.113Z,0
2022-11-06T19:48:48.739Z,0
2022-11-06T19:49:29.206Z,0
2022-11-06T19:50:09.717Z,0
2022-11-06T19:51:05.467Z,0
2022-11-06T19:52:40.934Z,0
2022-11-06T19:52:53.579Z,0
2022-11-06T19:53:32.172Z,0
2022-11-06T19:54:12.633Z,0
2022-11-06T19:55:24.506Z,0
2022-11-06T19:55:33.633Z,0
2022-11-06T20:02:18.678Z,0
2022-11-06T20:02:58.997Z,0
2022-11-06T20:03:39.526Z,0
2022-11-06T20:04:20.022Z,0
2022-11-06T20:05:00.543Z,0
2022-11-06T20:05:41.039Z,0
2022-11-06T20:06:21.489Z,0
2022-11-06T20:08:57.087Z,0
2022-11-06T20:09:37.551Z,0
2022-11-06T20:10:18.153Z,0
2022-11-06T20:10:58.553Z,0
2022-11-06T20:11:39.269Z,0
2022-11-06T20:12:19.678Z,0
2022-11-06T20:13:00.404Z,0
2022-11-06T20:13:40.940Z,0
2022-11-06T20:14:21.683Z,0
2022-11-06T20:19:47.582Z,0
2022-11-06T20:20:33.326Z,0
2022-11-06T20:21:09.058Z,0
2022-11-06T20:21:50.014Z,0
2022-11-06T20:22:30.637Z,0
2022-11-06T20:23:12.810Z,0
2022-11-06T20:28:36.901Z,0
2022-11-06T20:29:17.839Z,0
2022-11-06T20:29:58.120Z,0
2022-11-06T20:30:38.699Z,0
2022-11-06T20:31:19.137Z,0
2022-11-06T20:31:59.911Z,0
2022-11-06T20:32:40.443Z,0
2022-11-06T20:33:20.990Z,0
2022-11-06T20:34:01.493Z,0
2022-11-06T20:39:27.208Z,0
2022-11-06T20:40:07.879Z,0
2022-11-06T20:40:48.408Z,0
2022-11-06T20:41:28.829Z,0
2022-11-06T20:42:09.501Z,0
2022-11-06T20:42:50.247Z,0
2022-11-06T20:43:30.714Z,0
2022-11-06T20:44:11.291Z,0
2022-11-06T20:44:51.818Z,0
2022-11-06T20:50:56.970Z,0
2022-11-06T20:51:54.114Z,0
2022-11-06T20:52:18.141Z,0
2022-11-06T20:52:58.990Z,0
2022-11-06T20:53:39.543Z,0
2022-11-06T20:54:20.083Z,0
2022-11-06T20:55:00.663Z,0
2022-11-06T20:56:21.740Z,0
2022-11-06T21:02:27.002Z,0
2022-11-06T21:03:49.092Z,0
2022-11-06T21:04:30.508Z,0
2022-11-06T21:05:12.392Z,0
2022-11-06T21:09:57.085Z,0
2022-11-06T21:10:38.038Z,0
2022-11-06T21:11:18.593Z,0
2022-11-06T21:11:59.294Z,0
2022-11-06T21:12:39.703Z,0
2022-11-06T21:14:00.717Z,0
2022-11-06T21:14:41.338Z,0
2022-11-06T21:15:22.150Z,0
2022-11-06T21:18:47.518Z,0